createdAt,value
2023-01-23T00:01:31.232Z,10.23
2023-01-23T00:03:58.189Z,10.27
2023-01-23T00:06:25.335Z,10.40
2023-01-23T00:08:52.205Z,11.53
2023-01-23T00:11:23.252Z,10.70
2023-01-23T00:13:50.441Z,10.02
2023-01-23T00:16:21.007Z,10.77
2023-01-23T00:18:48.882Z,10.77
2023-01-23T00:21:19.702Z,10.47
2023-01-23T00:23:50.425Z,11.38
2023-01-23T00:26:21.489Z,11.70
2023-01-23T00:28:48.858Z,10.85
2023-01-23T00:31:26.681Z,11.70
2023-01-23T00:33:57.610Z,10.77
2023-01-23T00:36:27.431Z,11.95
2023-01-23T00:38:54.178Z,11.00
2023-01-23T00:41:20.973Z,11.67
2023-01-23T00:43:48.453Z,11.53
2023-01-23T00:46:15.282Z,11.93
2023-01-23T00:48:42.069Z,10.70
2023-01-23T00:51:08.932Z,11.73
2023-01-23T00:53:35.807Z,11.70
2023-01-23T00:56:02.573Z,11.47
2023-01-23T00:58:29.362Z,11.70
2023-01-23T01:00:56.202Z,11.67
2023-01-23T01:03:25.147Z,11.07
2023-01-23T01:05:52.666Z,11.00
2023-01-23T01:08:19.738Z,11.67
2023-01-23T01:10:46.519Z,11.53
2023-01-23T01:13:13.379Z,12.73
2023-01-23T01:15:40.155Z,12.37
2023-01-23T01:18:07.126Z,12.40
2023-01-23T01:20:33.855Z,11.60
2023-01-23T01:23:00.726Z,11.50
2023-01-23T01:25:27.979Z,10.13
2023-01-23T01:27:56.034Z,12.60
2023-01-23T01:30:23.188Z,10.93
2023-01-23T01:32:50.621Z,10.30
2023-01-23T01:35:17.478Z,11.30
2023-01-23T01:37:44.369Z,10.37
2023-01-23T01:40:22.805Z,11.27
2023-01-23T01:43:01.432Z,11.10
2023-01-23T01:46:08.178Z,10.30
2023-01-23T01:48:55.959Z,10.67
2023-01-23T01:51:31.196Z,10.83
2023-01-23T01:54:47.244Z,10.73
2023-01-23T01:57:24.208Z,9.93
2023-01-23T02:00:00.438Z,10.13
2023-01-23T02:02:35.621Z,10.33
2023-01-23T02:05:11.916Z,9.43
2023-01-23T02:08:09.399Z,11.20
2023-01-23T02:10:37.304Z,10.40
2023-01-23T02:13:33.701Z,10.33
2023-01-23T02:16:05.294Z,10.63
2023-01-23T02:18:35.153Z,9.27
2023-01-23T02:21:07.078Z,9.93
2023-01-23T02:23:56.080Z,10.10
2023-01-23T02:26:32.766Z,10.87
2023-01-23T02:29:00.226Z,10.73
2023-01-23T02:31:27.673Z,9.47
2023-01-23T02:33:58.328Z,9.00
2023-01-23T02:36:30.163Z,8.82
2023-01-23T02:39:10.014Z,9.70
2023-01-23T02:42:04.702Z,8.80
2023-01-23T02:44:32.381Z,8.57
2023-01-23T02:47:05.600Z,9.97
2023-01-23T02:49:32.525Z,9.03
2023-01-23T02:51:59.461Z,9.10
2023-01-23T02:54:26.730Z,10.30
2023-01-23T02:56:53.510Z,8.30
2023-01-23T02:59:38.706Z,9.20
2023-01-23T03:02:06.205Z,9.57
2023-01-23T03:04:33.132Z,8.67
2023-01-23T03:07:00.323Z,9.50
2023-01-23T03:09:27.467Z,9.67
2023-01-23T03:11:54.333Z,9.03
2023-01-23T03:14:23.382Z,8.50
2023-01-23T03:16:51.546Z,8.83
2023-01-23T03:19:23.069Z,9.43
2023-01-23T03:24:17.511Z,8.40
2023-01-23T03:26:47.101Z,8.63
2023-01-23T03:29:40.058Z,10.53
2023-01-23T03:32:08.106Z,8.73
2023-01-23T03:34:35.465Z,8.83
2023-01-23T03:37:03.363Z,8.47
2023-01-23T03:39:49.102Z,8.40
2023-01-23T03:42:15.902Z,8.40
2023-01-23T03:44:42.737Z,8.50
2023-01-23T03:47:10.136Z,8.00
2023-01-23T03:49:37.056Z,7.90
2023-01-23T03:52:04.454Z,8.60
2023-01-23T03:54:31.328Z,9.03
2023-01-23T03:56:58.152Z,7.67
2023-01-23T03:59:25.154Z,7.90
2023-01-23T04:01:51.941Z,7.87
2023-01-23T04:04:18.751Z,7.57
2023-01-23T04:06:45.562Z,7.17
2023-01-23T04:09:12.972Z,6.93
2023-01-23T04:11:39.735Z,7.03
2023-01-23T04:14:06.486Z,8.20
2023-01-23T04:16:33.272Z,7.20
2023-01-23T04:19:00.040Z,7.10
2023-01-23T04:21:26.901Z,6.80
2023-01-23T04:23:53.712Z,6.37
2023-01-23T04:26:20.486Z,6.07
2023-01-23T04:28:47.236Z,6.97
2023-01-23T04:31:14.084Z,23.97
2023-01-23T04:33:40.984Z,25.37
2023-01-23T04:36:08.429Z,7.50
2023-01-23T04:38:35.807Z,6.73
2023-01-23T04:41:03.572Z,6.83
2023-01-23T04:43:30.601Z,5.80
2023-01-23T04:45:57.673Z,6.07
2023-01-23T04:48:25.327Z,5.87
2023-01-23T04:50:52.358Z,6.77
2023-01-23T04:53:19.685Z,5.93
2023-01-23T04:55:49.985Z,12.20
2023-01-23T04:58:18.525Z,6.07
2023-01-23T05:00:46.215Z,7.47
2023-01-23T05:03:13.947Z,6.13
2023-01-23T05:05:42.619Z,6.10
2023-01-23T05:08:10.509Z,5.53
2023-01-23T05:10:37.793Z,6.70
2023-01-23T05:13:04.661Z,6.63
2023-01-23T05:15:31.958Z,10.47
2023-01-23T05:17:58.784Z,6.40
2023-01-23T05:20:25.651Z,6.00
2023-01-23T05:22:52.899Z,6.17
2023-01-23T05:25:28.045Z,5.70
2023-01-23T05:27:55.361Z,5.17
2023-01-23T05:30:23.232Z,5.57
2023-01-23T05:32:50.385Z,5.37
2023-01-23T05:35:17.540Z,5.17
2023-01-23T05:37:48.621Z,5.13
2023-01-23T05:40:15.408Z,5.25
2023-01-23T05:42:42.217Z,4.43
2023-01-23T05:45:09.712Z,5.53
2023-01-23T05:47:37.252Z,5.43
2023-01-23T05:50:05.952Z,4.37
2023-01-23T05:52:32.754Z,4.07
2023-01-23T05:54:59.538Z,4.23
2023-01-23T05:57:26.347Z,3.80
2023-01-23T05:59:53.134Z,3.53
2023-01-23T06:02:19.953Z,3.60
2023-01-23T06:04:50.009Z,3.73
2023-01-23T06:07:18.770Z,3.03
2023-01-23T06:09:47.029Z,3.63
2023-01-23T06:12:14.027Z,3.63
2023-01-23T06:14:41.103Z,3.70
2023-01-23T06:17:07.997Z,3.70
2023-01-23T06:19:34.816Z,3.57
2023-01-23T06:22:01.593Z,3.70
2023-01-23T06:24:28.392Z,3.57
2023-01-23T06:26:55.211Z,3.43
2023-01-23T06:29:22.113Z,3.63
2023-01-23T06:31:49.474Z,3.20
2023-01-23T06:34:16.506Z,2.73
2023-01-23T06:36:43.437Z,3.47
2023-01-23T06:39:13.845Z,3.33
2023-01-23T06:41:41.104Z,3.50
2023-01-23T06:44:07.949Z,3.40
2023-01-23T06:46:35.164Z,3.13
2023-01-23T06:49:04.543Z,3.53
2023-01-23T06:51:33.658Z,3.60
2023-01-23T06:54:00.749Z,3.50
2023-01-23T06:56:27.587Z,4.17
2023-01-23T06:58:54.352Z,3.67
2023-01-23T07:01:21.528Z,4.17
2023-01-23T07:03:48.512Z,3.60
2023-01-23T07:06:16.212Z,3.20
2023-01-23T07:08:44.125Z,3.70
2023-01-23T07:11:11.912Z,3.50
2023-01-23T07:13:38.793Z,3.83
2023-01-23T07:16:05.892Z,3.53
2023-01-23T07:18:33.212Z,3.87
2023-01-23T07:21:00.845Z,4.10
2023-01-23T07:23:27.692Z,4.07
2023-01-23T07:26:03.875Z,4.30
2023-01-23T07:28:31.242Z,4.07
2023-01-23T07:30:59.607Z,4.27
2023-01-23T07:33:26.707Z,5.00
2023-01-23T07:35:53.963Z,4.63
2023-01-23T07:38:23.284Z,4.33
2023-01-23T07:40:50.941Z,4.50
2023-01-23T07:43:18.072Z,4.73
2023-01-23T07:45:45.248Z,3.90
2023-01-23T07:48:12.132Z,3.93
2023-01-23T07:50:39.005Z,4.27
2023-01-23T07:53:06.824Z,4.17
2023-01-23T07:55:34.837Z,4.17
2023-01-23T07:58:01.602Z,3.83
2023-01-23T08:00:30.149Z,3.37
2023-01-23T08:02:57.486Z,4.03
2023-01-23T08:05:25.597Z,4.13
2023-01-23T08:08:07.391Z,4.67
2023-01-23T08:10:39.176Z,4.67
2023-01-23T08:13:06.028Z,4.10
2023-01-23T08:15:32.800Z,4.27
2023-01-23T08:17:59.639Z,4.23
2023-01-23T08:20:26.412Z,4.27
2023-01-23T08:22:53.239Z,4.57
2023-01-23T08:25:19.985Z,4.30
2023-01-23T08:27:46.772Z,4.60
2023-01-23T08:30:13.986Z,4.00
2023-01-23T08:32:40.791Z,5.00
2023-01-23T08:35:08.134Z,5.40
2023-01-23T08:37:34.910Z,5.50
2023-01-23T08:40:01.824Z,5.67
2023-01-23T08:42:28.619Z,5.47
2023-01-23T08:44:55.773Z,6.47
2023-01-23T08:47:22.581Z,4.73
2023-01-23T08:49:49.415Z,5.03
2023-01-23T08:52:16.475Z,4.77
2023-01-23T08:54:43.219Z,5.00
2023-01-23T08:57:10.038Z,4.87
2023-01-23T08:59:36.824Z,5.10
2023-01-23T09:02:03.729Z,5.70
2023-01-23T09:04:30.614Z,5.83
2023-01-23T09:06:57.435Z,5.80
2023-01-23T09:09:24.275Z,5.63
2023-01-23T09:11:51.105Z,5.60
2023-01-23T09:14:17.943Z,5.90
2023-01-23T09:16:44.807Z,5.57
2023-01-23T09:19:12.705Z,6.23
2023-01-23T09:21:39.909Z,5.80
2023-01-23T09:24:06.923Z,5.70
2023-01-23T09:26:33.686Z,6.50
2023-01-23T09:29:00.491Z,6.07
2023-01-23T09:31:27.362Z,6.80
2023-01-23T09:33:54.237Z,6.10
2023-01-23T09:36:33.717Z,6.40
2023-01-23T09:39:07.789Z,6.10
2023-01-23T09:41:34.697Z,7.27
2023-01-23T09:44:20.495Z,6.03
2023-01-23T09:46:54.862Z,6.97
2023-01-23T09:49:28.707Z,7.13
2023-01-23T09:52:19.812Z,7.30
2023-01-23T09:55:03.807Z,6.90
2023-01-23T09:57:54.725Z,7.17
2023-01-23T10:00:30.704Z,5.93
2023-01-23T10:03:00.736Z,5.87
2023-01-23T10:05:42.438Z,5.80
2023-01-23T10:08:46.085Z,6.40
2023-01-23T10:11:29.663Z,6.87
2023-01-23T10:14:17.507Z,6.43
2023-01-23T10:17:05.313Z,5.37
2023-01-23T10:20:18.310Z,5.73
2023-01-23T10:23:00.793Z,5.83
2023-01-23T10:25:33.058Z,5.80
2023-01-23T10:28:29.927Z,5.07
2023-01-23T10:31:02.895Z,4.33
2023-01-23T10:34:14.191Z,4.73
2023-01-23T10:36:58.818Z,5.20
2023-01-23T10:39:32.954Z,4.87
2023-01-23T10:42:02.334Z,6.07
2023-01-23T10:44:29.468Z,5.87
2023-01-23T10:47:00.967Z,4.93
2023-01-23T10:52:44.588Z,4.97
2023-01-23T10:55:20.644Z,5.50
2023-01-23T10:57:53.006Z,4.80
2023-01-23T11:00:37.813Z,4.93
2023-01-23T11:03:22.766Z,4.80
2023-01-23T11:06:17.698Z,6.03
2023-01-23T11:08:57.398Z,7.37
2023-01-23T11:11:27.619Z,9.50
2023-01-23T11:14:14.262Z,21.97
2023-01-23T11:16:41.149Z,8.30
2023-01-23T11:19:07.788Z,8.43
2023-01-23T11:21:57.072Z,6.50
2023-01-23T11:24:40.750Z,5.83
2023-01-23T11:27:20.173Z,5.80
2023-01-23T11:30:16.734Z,6.47
2023-01-23T11:32:59.942Z,6.70
2023-01-23T11:36:07.312Z,8.07
2023-01-23T11:38:52.548Z,6.90
2023-01-23T11:41:29.173Z,7.67
2023-01-23T11:43:56.438Z,13.33
2023-01-23T11:46:41.842Z,8.10
2023-01-23T11:49:51.496Z,7.23
2023-01-23T11:52:38.584Z,6.07
2023-01-23T11:55:36.327Z,6.97
2023-01-23T11:58:50.375Z,7.13
2023-01-23T12:02:03.411Z,8.27
2023-01-23T12:04:50.210Z,5.77
2023-01-23T12:07:23.402Z,6.90
2023-01-23T12:10:17.577Z,7.17
2023-01-23T12:13:21.661Z,9.97
2023-01-23T12:16:27.474Z,7.80
2023-01-23T12:19:21.460Z,7.30
2023-01-23T12:22:03.137Z,6.67
2023-01-23T12:25:01.957Z,6.60
2023-01-23T12:27:45.940Z,6.97
2023-01-23T12:31:05.784Z,7.33
2023-01-23T12:33:47.926Z,7.63
2023-01-23T12:36:59.527Z,9.67
2023-01-23T12:39:51.161Z,6.87
2023-01-23T12:42:25.146Z,10.33
2023-01-23T12:45:11.816Z,7.43
2023-01-23T12:48:03.682Z,12.67
2023-01-23T12:50:46.739Z,9.30
2023-01-23T12:53:21.224Z,9.83
2023-01-23T12:55:56.670Z,7.97
2023-01-23T12:58:28.321Z,9.30
2023-01-23T13:01:26.143Z,6.97
2023-01-23T13:04:31.610Z,7.30
2023-01-23T13:07:12.318Z,7.47
2023-01-23T13:10:02.375Z,7.60
2023-01-23T13:12:30.166Z,5.67
2023-01-23T13:15:38.864Z,7.33
2023-01-23T13:18:21.783Z,6.27
2023-01-23T13:21:18.764Z,6.07
2023-01-23T13:23:45.631Z,6.50
2023-01-23T13:26:15.366Z,6.50
2023-01-23T13:28:53.844Z,7.27
2023-01-23T13:31:46.771Z,7.20
2023-01-23T13:34:17.153Z,6.47
2023-01-23T13:36:44.429Z,6.50
2023-01-23T13:39:17.460Z,6.50
2023-01-23T13:42:14.340Z,6.20
2023-01-23T13:45:21.298Z,6.77
2023-01-23T14:22:59.935Z,7.53
2023-01-23T14:25:27.426Z,7.50
2023-01-23T14:28:06.541Z,7.33
2023-01-23T14:30:33.416Z,7.23
2023-01-23T14:33:00.304Z,7.37
2023-01-23T14:35:33.534Z,7.13
2023-01-23T14:38:05.525Z,7.00
2023-01-23T14:40:46.812Z,7.20
2023-01-23T14:43:26.997Z,6.60
2023-01-23T14:46:16.305Z,7.20
2023-01-23T14:48:50.199Z,7.27
2023-01-23T14:51:25.463Z,8.30
2023-01-23T14:54:02.705Z,8.53
2023-01-23T14:56:36.200Z,7.30
2023-01-23T14:59:08.317Z,8.10
2023-01-23T15:01:36.031Z,7.00
2023-01-23T15:04:20.475Z,8.03
2023-01-23T15:06:53.710Z,8.13
2023-01-23T15:09:32.450Z,7.30
2023-01-23T15:12:16.450Z,9.27
2023-01-23T15:14:43.855Z,7.73
2023-01-23T15:17:20.492Z,7.17
2023-01-23T15:19:56.516Z,7.93
2023-01-23T15:22:29.690Z,7.83
2023-01-23T15:24:57.082Z,7.60
2023-01-23T15:27:35.013Z,8.07
2023-01-23T15:30:35.601Z,7.60
2023-01-23T15:33:08.238Z,7.10
2023-01-23T15:35:38.969Z,8.13
2023-01-23T15:38:08.707Z,8.10
2023-01-23T15:40:38.153Z,7.43
2023-01-23T15:43:18.674Z,7.57
2023-01-23T15:48:13.534Z,6.73
2023-01-23T15:50:40.655Z,7.73
2023-01-23T15:53:14.473Z,8.40
2023-01-23T15:55:41.507Z,8.60
2023-01-23T15:58:14.907Z,7.50
2023-01-23T16:00:42.185Z,8.53
2023-01-23T16:03:09.064Z,7.30
2023-01-23T16:05:37.615Z,8.30
2023-01-23T16:08:06.169Z,7.73
2023-01-23T16:10:39.098Z,8.03
2023-01-23T16:13:07.529Z,8.83
2023-01-23T16:15:35.744Z,7.47
2023-01-23T16:18:06.293Z,7.87
2023-01-23T16:20:41.976Z,9.13
2023-01-23T16:23:24.636Z,8.73
2023-01-23T16:25:52.485Z,7.23
2023-01-23T16:28:23.012Z,6.90
2023-01-23T16:30:51.799Z,7.23
2023-01-23T16:33:19.599Z,8.37
2023-01-23T16:35:47.692Z,8.57
2023-01-23T16:38:28.227Z,8.00
2023-01-23T16:40:59.453Z,7.73
2023-01-23T16:43:26.456Z,9.30
2023-01-23T16:45:56.233Z,8.37
2023-01-23T16:48:27.721Z,7.27
2023-01-23T16:51:01.199Z,7.67
2023-01-23T16:53:36.039Z,8.13
2023-01-23T16:56:04.486Z,8.57
2023-01-23T16:58:50.592Z,8.20
2023-01-23T17:01:23.183Z,9.37
2023-01-23T17:03:59.913Z,8.53
2023-01-23T17:06:26.695Z,8.43
2023-01-23T17:08:53.700Z,9.10
2023-01-23T17:11:28.809Z,8.57
2023-01-23T17:14:04.100Z,7.17
2023-01-23T17:16:31.102Z,7.47
2023-01-23T17:19:01.098Z,7.17
2023-01-23T17:21:33.436Z,8.67
2023-01-23T17:24:00.285Z,8.80
2023-01-23T17:26:27.073Z,7.77
2023-01-23T17:28:53.937Z,7.60
2023-01-23T17:31:24.885Z,7.63
2023-01-23T17:33:52.677Z,7.00
2023-01-23T17:36:19.842Z,7.90
2023-01-23T17:38:46.799Z,8.33
2023-01-23T17:41:17.322Z,8.50
2023-01-23T17:43:44.731Z,8.43
2023-01-23T17:46:22.405Z,7.07
2023-01-23T17:48:49.301Z,8.73
2023-01-23T17:51:19.036Z,9.03
2023-01-23T17:53:46.264Z,7.40
2023-01-23T17:56:13.204Z,10.17
2023-01-23T17:58:40.049Z,8.30
2023-01-23T18:01:24.518Z,7.63
2023-01-23T18:03:53.384Z,8.63
2023-01-23T18:06:20.254Z,7.80
2023-01-23T18:08:47.197Z,7.50
2023-01-23T18:11:23.078Z,8.63
2023-01-23T18:13:55.822Z,8.73
2023-01-23T18:16:27.449Z,8.53
2023-01-23T18:19:01.330Z,14.70
2023-01-23T18:21:28.815Z,8.17
2023-01-23T18:23:56.127Z,7.57
2023-01-23T18:26:55.930Z,8.43
2023-01-23T18:29:44.272Z,7.50
2023-01-23T18:32:55.925Z,7.13
2023-01-23T18:35:52.663Z,9.23
2023-01-23T18:38:42.028Z,9.67
2023-01-23T18:41:23.190Z,8.40
2023-01-23T18:44:07.296Z,8.90
2023-01-23T18:46:34.426Z,5.17
2023-01-23T18:49:01.717Z,8.23
2023-01-23T18:51:37.843Z,9.77
2023-01-23T18:54:43.980Z,9.20
2023-01-23T18:57:32.919Z,9.03
2023-01-23T19:00:34.567Z,8.30
2023-01-23T19:03:17.626Z,8.98
2023-01-23T19:05:45.814Z,13.70
2023-01-23T19:08:28.719Z,9.30
2023-01-23T19:11:01.681Z,8.93
2023-01-23T19:13:43.649Z,8.67
2023-01-23T19:16:33.238Z,8.17
2023-01-23T19:19:16.422Z,8.80
2023-01-23T19:21:46.079Z,7.00
2023-01-23T19:24:19.013Z,8.53
2023-01-23T19:26:46.672Z,8.63
2023-01-23T19:29:21.840Z,9.87
2023-01-23T19:32:03.721Z,9.50
2023-01-23T19:34:31.817Z,7.73
2023-01-23T19:36:58.590Z,8.67
2023-01-23T19:39:25.405Z,7.13
2023-01-23T19:41:53.212Z,7.13
2023-01-23T19:44:24.795Z,8.93
2023-01-23T19:49:19.345Z,8.03
2023-01-23T19:51:47.314Z,8.60
2023-01-23T19:54:15.764Z,8.00
2023-01-23T19:56:42.825Z,7.93
2023-01-23T19:59:10.061Z,13.60
2023-01-23T20:01:49.901Z,9.80
2023-01-23T20:04:20.698Z,7.67
2023-01-23T20:06:52.041Z,8.95
2023-01-23T20:09:19.853Z,8.60
2023-01-23T20:11:47.217Z,10.50
2023-01-23T20:14:14.279Z,8.90
2023-01-23T20:16:43.140Z,9.17
2023-01-23T20:19:15.393Z,8.13
2023-01-23T20:21:42.625Z,9.00
2023-01-23T20:24:09.679Z,9.40
2023-01-23T20:26:37.051Z,8.80
2023-01-23T20:29:05.033Z,9.00
2023-01-23T20:31:32.875Z,9.93
2023-01-23T20:33:59.889Z,9.67
2023-01-23T20:36:26.856Z,9.80
2023-01-23T20:38:54.082Z,8.90
2023-01-23T20:41:22.274Z,9.40
2023-01-23T20:43:49.511Z,9.47
2023-01-23T20:46:16.964Z,9.93
2023-01-23T20:48:45.073Z,9.73
2023-01-23T20:51:14.878Z,8.57
2023-01-23T20:53:42.677Z,9.17
2023-01-23T20:56:19.106Z,9.87
2023-01-23T20:59:07.793Z,9.73
2023-01-23T21:01:56.484Z,6.73
2023-01-23T21:04:30.005Z,9.10
2023-01-23T21:06:57.308Z,9.43
2023-01-23T21:09:24.166Z,9.20
2023-01-23T21:11:52.114Z,9.53
2023-01-23T21:14:20.130Z,9.20
2023-01-23T21:16:47.674Z,10.03
2023-01-23T21:19:15.910Z,9.57
2023-01-23T21:21:43.112Z,10.23
2023-01-23T21:24:10.103Z,10.20
2023-01-23T21:26:37.493Z,11.23
2023-01-23T21:29:05.647Z,9.80
2023-01-23T21:31:35.453Z,10.43
2023-01-23T21:34:05.812Z,10.33
2023-01-23T21:36:32.794Z,9.67
2023-01-23T21:39:00.445Z,10.03
2023-01-23T21:41:27.365Z,9.80
2023-01-23T21:43:54.182Z,10.67
2023-01-23T21:46:21.238Z,10.60
2023-01-23T21:48:48.127Z,18.40
2023-01-23T21:51:21.839Z,8.93
2023-01-23T21:53:50.365Z,11.27
2023-01-23T21:56:20.760Z,13.07
2023-01-23T21:58:48.376Z,10.90
2023-01-23T22:01:36.043Z,11.77
2023-01-23T22:04:13.354Z,11.60
2023-01-23T22:06:43.020Z,10.50
2023-01-23T22:09:14.931Z,8.97
2023-01-23T22:11:41.712Z,9.87
2023-01-23T22:14:08.508Z,10.93
2023-01-23T22:16:47.985Z,11.03
2023-01-23T22:19:18.677Z,10.73
2023-01-23T22:21:46.577Z,11.37
2023-01-23T22:24:14.560Z,12.10
2023-01-23T22:26:41.414Z,10.27
2023-01-23T22:29:08.775Z,11.93
2023-01-23T22:31:35.739Z,12.77
2023-01-23T22:34:02.623Z,11.57
2023-01-23T22:36:29.612Z,11.27
2023-01-23T22:38:56.453Z,12.80
2023-01-23T22:41:24.038Z,11.17
2023-01-23T22:43:59.259Z,10.57
2023-01-23T22:46:26.613Z,10.50
2023-01-23T22:48:53.571Z,10.73
2023-01-23T22:51:25.044Z,12.87
2023-01-23T22:53:56.421Z,11.60
2023-01-23T22:56:25.229Z,12.00
2023-01-23T22:58:54.489Z,10.47
2023-01-23T23:01:27.096Z,11.57
2023-01-23T23:03:58.922Z,10.87
2023-01-23T23:06:26.644Z,11.67
2023-01-23T23:08:53.898Z,11.43
2023-01-23T23:11:23.835Z,12.40
2023-01-23T23:13:51.400Z,12.03
2023-01-23T23:16:22.249Z,11.07
2023-01-23T23:18:52.707Z,9.88
2023-01-23T23:21:25.999Z,13.83
2023-01-23T23:23:57.194Z,12.60
2023-01-23T23:26:25.032Z,11.48
2023-01-23T23:28:52.034Z,13.07
2023-01-23T23:31:18.991Z,11.73
2023-01-23T23:33:46.053Z,12.33
2023-01-23T23:36:12.827Z,10.73
2023-01-23T23:38:39.573Z,11.20
2023-01-23T23:41:14.016Z,10.87
2023-01-23T23:43:41.637Z,12.43
2023-01-23T23:46:09.959Z,10.50
2023-01-23T23:48:38.220Z,12.20
2023-01-23T23:51:08.646Z,9.03
2023-01-23T23:53:36.055Z,11.93
2023-01-23T23:56:03.959Z,10.73
2023-01-23T23:58:30.857Z,10.97
